createdAt,value
2022-09-12T00:01:22.534Z,99486.69
2022-09-12T00:03:53.214Z,99489.78
2022-09-12T00:06:23.964Z,99487.13
2022-09-12T00:08:56.087Z,99487.94
2022-09-12T00:11:24.518Z,99488.78
2022-09-12T00:13:52.966Z,99490.56
2022-09-12T00:16:23.723Z,99483.84
2022-09-12T00:18:53.870Z,99489.16
2022-09-12T00:21:23.149Z,99485.09
2022-09-12T00:23:53.235Z,99476.44
2022-09-12T00:26:22.875Z,99482.16
2022-09-12T00:28:51.714Z,99477.28
2022-09-12T00:31:24.239Z,99485.47
2022-09-12T00:33:52.639Z,99485.09
2022-09-12T00:36:23.528Z,99467.84
2022-09-12T00:38:54.863Z,99476.44
2022-09-12T00:41:25.997Z,99458.63
2022-09-12T00:43:56.222Z,99454.50
2022-09-12T00:46:33.794Z,99455.50
2022-09-12T00:49:06.995Z,99465.53
2022-09-12T00:51:38.051Z,99455.69
2022-09-12T00:54:12.497Z,99457.16
2022-09-12T00:56:43.491Z,99455.50
2022-09-12T00:59:16.256Z,99452.28
2022-09-12T01:01:48.109Z,99451.56
2022-09-12T01:04:18.889Z,99454.03
2022-09-12T01:06:49.430Z,99450.56
2022-09-12T01:09:23.009Z,99457.53
2022-09-12T01:11:53.356Z,99449.53
2022-09-12T01:14:22.640Z,99448.53
2022-09-12T01:16:52.428Z,99443.75
2022-09-12T01:19:52.523Z,99442.28
2022-09-12T01:22:38.004Z,99440.72
2022-09-12T01:25:24.340Z,99440.72
2022-09-12T01:28:13.293Z,99443.19
2022-09-12T01:30:49.373Z,99442.34
2022-09-12T01:33:33.778Z,99439.91
2022-09-12T01:36:26.865Z,99440.34
2022-09-12T01:39:01.555Z,99441.53
2022-09-12T01:41:38.774Z,99435.56
2022-09-12T01:44:16.292Z,99443.56
2022-09-12T01:46:50.253Z,99439.91
2022-09-12T01:49:24.417Z,99439.91
2022-09-12T01:52:01.284Z,99433.72
2022-09-12T01:54:38.069Z,99441.19
2022-09-12T01:57:13.870Z,99432.09
2022-09-12T01:59:46.957Z,99440.66
2022-09-12T02:02:21.720Z,99439.91
2022-09-12T02:04:54.473Z,99438.22
2022-09-12T02:07:27.851Z,99441.53
2022-09-12T02:10:03.123Z,99440.72
2022-09-12T02:12:39.937Z,99428.41
2022-09-12T02:15:10.790Z,99429.84
2022-09-12T02:17:43.908Z,99437.41
2022-09-12T02:20:26.041Z,99422.59
2022-09-12T02:23:10.674Z,99420.22
2022-09-12T02:25:43.267Z,99420.84
2022-09-12T02:28:16.568Z,99428.78
2022-09-12T02:30:50.874Z,99420.97
2022-09-12T02:33:28.561Z,99434.28
2022-09-12T02:36:04.987Z,99432.00
2022-09-12T02:38:43.001Z,99438.03
2022-09-12T02:41:12.153Z,99435.56
2022-09-12T02:43:40.633Z,99429.97
2022-09-12T02:46:12.640Z,99436.13
2022-09-12T02:48:44.927Z,99428.41
2022-09-12T02:51:13.474Z,99433.72
2022-09-12T02:53:43.204Z,99436.78
2022-09-12T02:56:18.578Z,99437.84
2022-09-12T02:58:47.703Z,99436.22
2022-09-12T03:01:37.574Z,99433.66
2022-09-12T03:04:32.705Z,99437.59
2022-09-12T03:07:12.606Z,99432.91
2022-09-12T03:09:47.197Z,99432.84
2022-09-12T03:12:36.758Z,99421.16
2022-09-12T03:15:15.872Z,99411.38
2022-09-12T03:17:57.981Z,99411.94
2022-09-12T03:20:42.267Z,99410.97
2022-09-12T03:23:19.113Z,99425.94
2022-09-12T03:25:53.466Z,99430.41
2022-09-12T03:28:23.831Z,99424.84
2022-09-12T03:30:54.470Z,99421.03
2022-09-12T03:33:24.854Z,99423.91
2022-09-12T03:35:56.182Z,99425.09
2022-09-12T03:38:24.594Z,99423.25
2022-09-12T03:40:54.825Z,99424.09
2022-09-12T03:43:23.594Z,99428.97
2022-09-12T03:45:52.397Z,99421.34
2022-09-12T03:48:20.796Z,99427.31
2022-09-12T03:50:49.202Z,99434.94
2022-09-12T03:53:18.902Z,99425.47
2022-09-12T03:55:47.262Z,99426.75
2022-09-12T03:58:15.545Z,99437.59
2022-09-12T04:00:44.530Z,99444.59
2022-09-12T04:03:12.814Z,99441.84
2022-09-12T04:05:41.221Z,99441.06
2022-09-12T04:08:09.546Z,99437.97
2022-09-12T04:10:39.565Z,99437.31
2022-09-12T04:13:08.243Z,99428.72
2022-09-12T04:15:36.556Z,99425.84
2022-09-12T04:18:06.071Z,99433.47
2022-09-12T04:20:34.569Z,99444.34
2022-09-12T04:23:02.945Z,99443.50
2022-09-12T04:25:31.497Z,99439.19
2022-09-12T04:28:01.401Z,99438.34
2022-09-12T04:30:29.708Z,99437.31
2022-09-12T04:32:58.143Z,99447.56
2022-09-12T04:35:26.957Z,99471.78
2022-09-12T04:37:55.625Z,99476.69
2022-09-12T04:40:24.120Z,99480.81
2022-09-12T04:42:52.484Z,99479.59
2022-09-12T04:45:22.169Z,99461.59
2022-09-12T04:47:50.395Z,99456.63
2022-09-12T04:50:19.257Z,99455.81
2022-09-12T04:52:51.513Z,99451.75
2022-09-12T04:55:20.165Z,99440.66
2022-09-12T04:57:48.903Z,99438.78
2022-09-12T05:00:17.588Z,99429.63
2022-09-12T05:02:47.307Z,99432.91
2022-09-12T05:05:15.912Z,99430.41
2022-09-12T05:07:44.277Z,99450.66
2022-09-12T05:10:12.885Z,99458.28
2022-09-12T05:12:41.216Z,99453.59
2022-09-12T05:15:10.916Z,99446.78
2022-09-12T05:17:39.157Z,99451.75
2022-09-12T05:20:12.982Z,99458.81
2022-09-12T05:22:41.366Z,99454.88
2022-09-12T05:25:10.834Z,99452.84
2022-09-12T05:27:39.153Z,99457.84
2022-09-12T05:30:08.907Z,99452.59
2022-09-12T05:32:37.323Z,99447.25
2022-09-12T05:35:06.363Z,99450.16
2022-09-12T05:37:36.014Z,99454.59
2022-09-12T05:40:07.766Z,99448.09
2022-09-12T05:42:36.938Z,99461.59
2022-09-12T05:45:06.186Z,99471.06
2022-09-12T05:47:34.303Z,99464.53
2022-09-12T05:50:02.751Z,99443.69
2022-09-12T05:52:31.308Z,99433.72
2022-09-12T05:55:01.165Z,99445.59
2022-09-12T05:57:29.591Z,99459.91
2022-09-12T05:59:58.456Z,99467.91
2022-09-12T06:02:26.977Z,99477.22
2022-09-12T06:04:57.997Z,99480.50
2022-09-12T06:07:26.438Z,99459.91
2022-09-12T06:09:54.768Z,99444.59
2022-09-12T06:12:24.371Z,99435.75
2022-09-12T06:14:52.739Z,99436.22
2022-09-12T06:17:21.032Z,99431.25
2022-09-12T06:19:50.403Z,99439.91
2022-09-12T06:22:18.967Z,99444.94
2022-09-12T06:24:47.394Z,99451.00
2022-09-12T06:27:16.232Z,99451.00
2022-09-12T06:29:46.052Z,99451.84
2022-09-12T06:32:14.403Z,99453.84
2022-09-12T06:34:42.838Z,99455.91
2022-09-12T06:37:11.350Z,99460.81
2022-09-12T06:39:39.777Z,99459.19
2022-09-12T06:42:08.332Z,99468.63
2022-09-12T06:44:37.586Z,99471.91
2022-09-12T06:47:07.657Z,99476.44
2022-09-12T06:49:36.023Z,99468.19
2022-09-12T06:52:04.370Z,99475.13
2022-09-12T06:54:32.735Z,99465.66
2022-09-12T06:57:00.944Z,99455.00
2022-09-12T06:59:29.299Z,99458.66
2022-09-12T07:01:57.929Z,99454.59
2022-09-12T07:04:27.896Z,99457.00
2022-09-12T07:06:56.294Z,99464.44
2022-09-12T07:09:24.542Z,99460.75
2022-09-12T07:11:52.777Z,99454.53
2022-09-12T07:14:21.159Z,99450.03
2022-09-12T07:16:49.518Z,99458.03
2022-09-12T07:19:17.958Z,99445.97
2022-09-12T07:21:47.723Z,99455.91
2022-09-12T07:24:16.118Z,99451.94
2022-09-12T07:26:44.378Z,99447.63
2022-09-12T07:29:37.037Z,99450.09
2022-09-12T07:32:06.097Z,99461.59
2022-09-12T07:34:34.873Z,99463.97
2022-09-12T07:37:04.929Z,99460.75
2022-09-12T07:39:33.744Z,99461.78
2022-09-12T07:42:02.048Z,99463.97
2022-09-12T07:44:30.962Z,99453.88
2022-09-12T07:46:59.278Z,99450.66
2022-09-12T07:49:27.580Z,99454.16
2022-09-12T07:51:56.021Z,99459.13
2022-09-12T07:54:25.793Z,99454.34
2022-09-12T07:56:54.043Z,99439.81
2022-09-12T07:59:48.314Z,99425.03
2022-09-12T08:02:17.269Z,99412.72
2022-09-12T08:04:46.882Z,99419.31
2022-09-12T08:07:15.386Z,99418.94
2022-09-12T08:09:45.110Z,99423.00
2022-09-12T08:12:13.583Z,99428.34
2022-09-12T08:14:42.000Z,99436.34
2022-09-12T08:17:10.419Z,99422.00
2022-09-12T08:19:39.555Z,99423.81
2022-09-12T08:22:08.450Z,99428.97
2022-09-12T08:24:36.655Z,99420.97
2022-09-12T08:27:06.748Z,99414.88
2022-09-12T08:29:35.171Z,99410.81
2022-09-12T08:32:04.239Z,99402.59
2022-09-12T08:34:32.665Z,99412.78
2022-09-12T08:37:00.958Z,99419.69
2022-09-12T08:39:29.318Z,99423.81
2022-09-12T08:42:03.217Z,99407.91
2022-09-12T08:45:06.017Z,99409.03
2022-09-12T08:47:37.824Z,99402.50
2022-09-12T08:50:15.471Z,99399.22
2022-09-12T08:52:51.115Z,99398.91
2022-09-12T08:55:31.232Z,99396.34
2022-09-12T08:58:01.173Z,99401.47
2022-09-12T09:00:40.694Z,99405.63
2022-09-12T09:03:45.375Z,99399.63
2022-09-12T09:06:28.486Z,99394.97
2022-09-12T09:09:06.122Z,99396.97
2022-09-12T09:11:48.404Z,99397.16
2022-09-12T09:14:50.074Z,99400.00
2022-09-12T09:17:27.859Z,99392.66
2022-09-12T09:20:05.069Z,99388.41
2022-09-12T09:22:42.715Z,99390.44
2022-09-12T09:25:22.711Z,99386.13
2022-09-12T09:27:59.067Z,99385.56
2022-09-12T09:30:28.772Z,99383.53
2022-09-12T09:33:01.081Z,99386.19
2022-09-12T09:35:40.312Z,99388.41
2022-09-12T09:38:23.468Z,99378.59
2022-09-12T09:41:04.791Z,99374.53
2022-09-12T09:43:33.208Z,99373.50
2022-09-12T09:46:02.070Z,99364.06
2022-09-12T09:48:34.010Z,99366.91
2022-09-12T09:51:05.631Z,99373.88
2022-09-12T09:53:41.012Z,99364.94
2022-09-12T09:56:14.074Z,99366.16
2022-09-12T09:58:42.926Z,99353.81
2022-09-12T10:01:17.303Z,99350.97
2022-09-12T10:03:55.146Z,99348.88
2022-09-12T10:06:27.279Z,99345.22
2022-09-12T10:09:09.279Z,99345.13
2022-09-12T10:11:43.687Z,99345.22
2022-09-12T10:14:44.216Z,99354.19
2022-09-12T10:17:33.919Z,99354.00
2022-09-12T10:20:20.605Z,99366.16
2022-09-12T10:22:50.781Z,99375.66
2022-09-12T10:25:21.360Z,99382.78
2022-09-12T10:27:56.367Z,99403.06
2022-09-12T10:30:28.410Z,99410.09
2022-09-12T10:33:00.721Z,99413.50
2022-09-12T10:35:43.001Z,99409.91
2022-09-12T10:38:25.087Z,99408.03
2022-09-12T10:40:59.385Z,99412.84
2022-09-12T10:43:31.189Z,99413.75
2022-09-12T10:46:00.224Z,99405.75
2022-09-12T10:48:31.925Z,99407.41
2022-09-12T10:51:02.664Z,99408.41
2022-09-12T10:53:41.402Z,99413.38
2022-09-12T10:56:12.217Z,99412.56
2022-09-12T10:58:52.104Z,99400.41
2022-09-12T11:01:36.038Z,99404.94
2022-09-12T11:04:25.813Z,99413.38
2022-09-12T11:07:08.463Z,99409.72
2022-09-12T11:09:43.791Z,99401.31
2022-09-12T11:12:20.431Z,99397.00
2022-09-12T11:15:03.872Z,99396.19
2022-09-12T11:17:43.424Z,99396.19
2022-09-12T11:20:37.389Z,99390.03
2022-09-12T11:23:29.614Z,99389.00
2022-09-12T11:26:04.793Z,99384.31
2022-09-12T11:28:47.175Z,99379.34
2022-09-12T11:31:35.274Z,99389.66
2022-09-12T11:34:09.779Z,99370.31
2022-09-12T11:36:44.967Z,99367.03
2022-09-12T11:39:18.793Z,99356.19
2022-09-12T11:41:52.511Z,99350.63
2022-09-12T11:44:24.499Z,99346.97
2022-09-12T11:46:53.123Z,99362.47
2022-09-12T11:49:34.777Z,99358.63
2022-09-12T11:52:08.479Z,99365.28
2022-09-12T11:54:44.965Z,99365.47
2022-09-12T11:57:18.509Z,99367.66
2022-09-12T11:59:51.379Z,99365.00
2022-09-12T12:02:27.932Z,99362.97
2022-09-12T12:05:03.974Z,99351.94
2022-09-12T12:07:45.550Z,99343.09
2022-09-12T12:10:28.316Z,99343.28
2022-09-12T12:12:58.808Z,99336.94
2022-09-12T12:15:29.133Z,99337.75
2022-09-12T12:18:07.213Z,99323.22
2022-09-12T12:20:36.513Z,99324.25
2022-09-12T12:23:05.092Z,99317.09
2022-09-12T12:25:54.184Z,99323.59
2022-09-12T12:29:01.331Z,99321.78
2022-09-12T12:31:29.853Z,99316.06
2022-09-12T12:34:29.714Z,99315.59
2022-09-12T12:37:00.189Z,99306.06
2022-09-12T12:40:04.082Z,99313.81
2022-09-12T12:43:29.565Z,99313.56
2022-09-12T12:46:12.702Z,99308.06
2022-09-12T12:49:10.900Z,99310.91
2022-09-12T12:51:59.185Z,99291.22
2022-09-12T12:54:52.516Z,99291.88
2022-09-12T12:57:28.418Z,99289.59
2022-09-12T13:00:02.321Z,99299.41
2022-09-12T13:02:34.882Z,99296.81
2022-09-12T13:05:07.075Z,99297.00
2022-09-12T13:07:38.756Z,99303.59
2022-09-12T13:10:09.290Z,99304.81
2022-09-12T13:12:45.561Z,99297.81
2022-09-12T13:15:46.149Z,99296.56
2022-09-12T13:18:20.044Z,99287.16
2022-09-12T13:20:52.147Z,99294.16
2022-09-12T13:23:26.439Z,99296.81
2022-09-12T13:25:55.975Z,99302.38
2022-09-12T13:28:26.562Z,99303.66
2022-09-12T13:31:02.435Z,99306.06
2022-09-12T13:33:41.768Z,99312.19
2022-09-12T13:36:39.778Z,99305.56
2022-09-12T13:39:20.550Z,99306.47
2022-09-12T13:42:27.681Z,99309.50
2022-09-12T13:45:00.698Z,99312.19
2022-09-12T13:47:33.968Z,99308.66
2022-09-12T13:50:05.909Z,99315.88
2022-09-12T13:52:37.097Z,99317.50
2022-09-12T13:55:09.924Z,99301.50
2022-09-12T13:57:41.482Z,99306.00
2022-09-12T14:00:20.191Z,99298.19
2022-09-12T14:02:49.404Z,99306.84
2022-09-12T14:05:21.451Z,99318.03
2022-09-12T14:07:56.494Z,99314.41
2022-09-12T14:10:32.001Z,99322.84
2022-09-12T14:13:02.593Z,99315.88
2022-09-12T14:15:33.525Z,99319.16
2022-09-12T14:18:03.720Z,99309.50
2022-09-12T14:20:37.377Z,99310.16
2022-09-12T14:23:17.137Z,99300.75
2022-09-12T14:25:47.939Z,99286.38
2022-09-12T14:28:23.427Z,99283.91
2022-09-12T14:31:05.220Z,99280.81
2022-09-12T14:33:36.143Z,99286.97
2022-09-12T14:36:18.611Z,99287.78
2022-09-12T14:38:51.151Z,99281.44
2022-09-12T14:41:25.680Z,99289.31
2022-09-12T14:43:57.630Z,99282.06
2022-09-12T14:46:31.918Z,99285.97
2022-09-12T14:49:03.504Z,99290.47
2022-09-12T14:51:38.642Z,99291.09
2022-09-12T14:54:07.132Z,99283.47
2022-09-12T14:56:41.646Z,99286.16
2022-09-12T14:59:28.878Z,99282.47
2022-09-12T15:02:33.732Z,99278.00
2022-09-12T15:05:24.070Z,99277.16
2022-09-12T15:07:59.854Z,99273.91
2022-09-12T15:10:31.543Z,99280.84
2022-09-12T15:13:15.464Z,99272.03
2022-09-12T15:15:45.516Z,99273.31
2022-09-12T15:18:15.185Z,99266.94
2022-09-12T15:20:45.026Z,99261.53
2022-09-12T15:23:19.407Z,99264.22
2022-09-12T15:25:48.158Z,99258.88
2022-09-12T15:28:21.944Z,99254.00
2022-09-12T15:30:52.259Z,99256.03
2022-09-12T15:33:22.993Z,99253.34
2022-09-12T15:35:51.708Z,99250.25
2022-09-12T15:38:26.371Z,99254.94
2022-09-12T15:40:55.481Z,99251.75
2022-09-12T15:43:26.400Z,99252.75
2022-09-12T15:45:54.822Z,99256.44
2022-09-12T15:48:23.307Z,99256.44
2022-09-12T15:50:51.600Z,99260.94
2022-09-12T15:53:21.332Z,99265.88
2022-09-12T15:55:49.683Z,99265.88
2022-09-12T15:58:18.015Z,99272.44
2022-09-12T16:00:46.313Z,99265.03
2022-09-12T16:03:22.716Z,99268.75
2022-09-12T16:05:51.728Z,99268.75
2022-09-12T16:08:21.412Z,99266.88
2022-09-12T16:10:54.255Z,99265.88
2022-09-12T16:13:22.738Z,99275.72
2022-09-12T16:15:50.968Z,99274.88
2022-09-12T16:18:19.458Z,99262.56
2022-09-12T16:20:47.798Z,99261.75
2022-09-12T16:23:16.122Z,99264.22
2022-09-12T16:25:45.944Z,99265.03
2022-09-12T16:28:14.269Z,99266.06
2022-09-12T16:30:42.696Z,99261.34
2022-09-12T16:33:11.092Z,99258.06
2022-09-12T16:35:39.366Z,99264.22
2022-09-12T16:38:07.803Z,99276.56
2022-09-12T16:40:36.231Z,99277.78
2022-09-12T16:43:05.982Z,99285.81
2022-09-12T16:45:34.419Z,99287.63
2022-09-12T16:48:03.211Z,99288.66
2022-09-12T16:50:31.683Z,99289.69
2022-09-12T16:53:00.528Z,99280.22
2022-09-12T16:55:32.279Z,99288.03
2022-09-12T16:58:00.919Z,99294.19
2022-09-12T17:00:30.651Z,99286.38
2022-09-12T17:03:00.554Z,99282.50
2022-09-12T17:05:29.808Z,99283.72
2022-09-12T17:07:59.621Z,99283.53
2022-09-12T17:10:28.328Z,99289.06
2022-09-12T17:12:57.404Z,99283.53
2022-09-12T17:15:25.850Z,99292.56
2022-09-12T17:17:55.697Z,99292.56
2022-09-12T17:20:24.088Z,99282.69
2022-09-12T17:22:52.462Z,99287.41
2022-09-12T17:25:21.059Z,99296.03
2022-09-12T17:27:49.695Z,99289.25
2022-09-12T17:30:18.399Z,99291.72
2022-09-12T17:32:46.806Z,99284.75
2022-09-12T17:35:16.754Z,99302.38
2022-09-12T17:37:45.325Z,99293.53
2022-09-12T17:40:14.184Z,99293.78
2022-09-12T17:42:43.360Z,99302.38
2022-09-12T17:45:18.198Z,99311.03
2022-09-12T17:47:47.524Z,99303.22
2022-09-12T17:50:31.256Z,99290.69
2022-09-12T17:53:00.710Z,99275.72
2022-09-12T17:55:32.140Z,99272.03
2022-09-12T17:58:01.621Z,99274.47
2022-09-12T18:00:43.811Z,99267.88
2022-09-12T18:03:12.526Z,99266.69
2022-09-12T18:05:48.277Z,99272.22
2022-09-12T18:08:16.990Z,99268.75
2022-09-12T18:10:45.429Z,99269.75
2022-09-12T18:13:14.439Z,99278.56
2022-09-12T18:15:42.877Z,99280.81
2022-09-12T18:18:11.413Z,99283.72
2022-09-12T18:20:39.805Z,99282.06
2022-09-12T18:23:09.703Z,99278.75
2022-09-12T18:25:38.139Z,99270.75
2022-09-12T18:28:09.264Z,99285.97
2022-09-12T18:30:37.781Z,99285.97
2022-09-12T18:33:06.044Z,99279.22
2022-09-12T18:35:34.536Z,99286.38
2022-09-12T18:38:02.945Z,99295.59
2022-09-12T18:40:32.732Z,99299.09
2022-09-12T18:43:01.338Z,99292.34
2022-09-12T18:45:29.836Z,99283.13
2022-09-12T18:47:58.123Z,99275.72
2022-09-12T18:50:26.769Z,99269.75
2022-09-12T18:52:59.526Z,99257.81
2022-09-12T18:55:28.415Z,99244.47
2022-09-12T18:57:58.222Z,99253.13
2022-09-12T19:00:27.075Z,99257.81
2022-09-12T19:02:55.546Z,99262.34
2022-09-12T19:05:24.006Z,99264.16
2022-09-12T19:07:52.318Z,99257.00
2022-09-12T19:10:20.808Z,99247.78
2022-09-12T19:12:49.071Z,99247.78
2022-09-12T19:15:19.042Z,99237.13
2022-09-12T19:17:47.356Z,99247.75
2022-09-12T19:20:15.969Z,99236.66
2022-09-12T19:22:44.406Z,99230.75
2022-09-12T19:25:12.863Z,99233.00
2022-09-12T19:27:41.138Z,99222.53
2022-09-12T19:30:10.520Z,99226.84
2022-09-12T19:32:40.613Z,99219.00
2022-09-12T19:35:09.652Z,99210.84
2022-09-12T19:37:38.037Z,99221.50
2022-09-12T19:40:07.462Z,99222.72
2022-09-12T19:42:36.023Z,99221.13
2022-09-12T19:45:04.498Z,99217.00
2022-09-12T19:47:32.841Z,99214.53
2022-09-12T19:50:02.473Z,99220.28
2022-09-12T19:52:30.870Z,99232.16
2022-09-12T19:54:59.238Z,99236.25
2022-09-12T19:57:27.684Z,99241.19
2022-09-12T19:59:55.880Z,99240.63
2022-09-12T20:02:26.754Z,99238.72
2022-09-12T20:04:55.722Z,99240.38
2022-09-12T20:07:25.591Z,99235.88
2022-09-12T20:09:55.199Z,99234.84
2022-09-12T20:12:23.428Z,99235.88
2022-09-12T20:14:51.673Z,99237.13
2022-09-12T20:17:19.919Z,99243.22
2022-09-12T20:19:48.302Z,99243.03
2022-09-12T20:22:16.553Z,99239.53
2022-09-12T20:24:46.206Z,99242.84
2022-09-12T20:27:14.612Z,99248.56
2022-09-12T20:29:42.989Z,99246.53
2022-09-12T20:32:11.378Z,99248.56
2022-09-12T20:34:39.756Z,99244.44
2022-09-12T20:37:08.146Z,99235.88
2022-09-12T20:39:36.396Z,99228.88
2022-09-12T20:42:06.436Z,99226.44
2022-09-12T20:44:34.806Z,99228.47
2022-09-12T20:47:03.189Z,99227.88
2022-09-12T20:49:31.578Z,99228.66
2022-09-12T20:52:00.117Z,99230.34
2022-09-12T20:54:28.480Z,99229.69
2022-09-12T20:56:56.728Z,99221.88
2022-09-12T20:59:26.485Z,99227.88
2022-09-12T21:01:54.877Z,99222.53
2022-09-12T21:04:24.054Z,99222.34
2022-09-12T21:06:52.368Z,99224.56
2022-09-12T21:09:20.665Z,99211.22
2022-09-12T21:11:49.117Z,99201.59
2022-09-12T21:14:17.534Z,99207.53
2022-09-12T21:16:47.154Z,99201.59
2022-09-12T21:19:15.536Z,99214.09
2022-09-12T21:21:43.973Z,99213.28
2022-09-12T21:24:15.039Z,99213.09
2022-09-12T21:26:43.318Z,99207.53
2022-09-12T21:29:11.616Z,99206.53
2022-09-12T21:31:39.988Z,99206.28
2022-09-12T21:34:09.926Z,99205.09
2022-09-12T21:36:38.391Z,99204.25
2022-09-12T21:39:07.097Z,99198.47
2022-09-12T21:41:35.564Z,99191.75
2022-09-12T21:44:04.172Z,99188.22
2022-09-12T21:46:32.605Z,99178.81
2022-09-12T21:49:00.943Z,99179.22
2022-09-12T21:51:31.146Z,99181.28
2022-09-12T21:53:59.470Z,99186.19
2022-09-12T21:56:27.901Z,99183.31
2022-09-12T21:58:56.264Z,99181.69
2022-09-12T22:01:24.537Z,99180.44
2022-09-12T22:03:53.061Z,99175.53
2022-09-12T22:06:22.622Z,99180.88
2022-09-12T22:08:52.780Z,99183.34
2022-09-12T22:11:21.454Z,99177.97
2022-09-12T22:13:49.952Z,99178.41
2022-09-12T22:16:18.383Z,99175.50
2022-09-12T22:18:47.323Z,99172.63
2022-09-12T22:21:18.163Z,99174.72
2022-09-12T22:24:04.276Z,99172.66
2022-09-12T22:26:42.088Z,99172.25
2022-09-12T22:29:11.356Z,99187.59
2022-09-12T22:31:39.642Z,99190.28
2022-09-12T22:34:08.315Z,99196.44
2022-09-12T22:36:38.928Z,99200.34
2022-09-12T22:39:07.791Z,99197.69
2022-09-12T22:41:37.627Z,99196.25
2022-09-12T22:45:47.927Z,99188.66
2022-09-12T22:48:17.239Z,99204.63
2022-09-12T22:50:45.956Z,99200.56
2022-09-12T22:53:14.339Z,99206.72
2022-09-12T22:55:45.224Z,99197.28
2022-09-12T22:58:13.521Z,99195.22
2022-09-12T23:00:46.739Z,99195.59
2022-09-12T23:03:16.515Z,99192.94
2022-09-12T23:05:46.129Z,99184.56
2022-09-12T23:08:14.805Z,99193.59
2022-09-12T23:10:44.052Z,99192.34
2022-09-12T23:13:12.979Z,99193.59
2022-09-12T23:15:41.901Z,99187.38
2022-09-12T23:18:10.295Z,99178.34
2022-09-12T23:20:40.117Z,99177.97
2022-09-12T23:23:08.528Z,99177.97
2022-09-12T23:25:36.986Z,99176.34
2022-09-12T23:28:05.356Z,99173.03
2022-09-12T23:30:33.755Z,99172.63
2022-09-12T23:33:02.512Z,99175.13
2022-09-12T23:35:30.924Z,99165.88
2022-09-12T23:38:00.709Z,99159.88
2022-09-12T23:40:29.087Z,99163.38
2022-09-12T23:42:57.388Z,99165.22
2022-09-12T23:45:25.794Z,99164.00
2022-09-12T23:47:54.023Z,99158.91
2022-09-12T23:50:22.288Z,99158.00
2022-09-12T23:52:50.647Z,99153.94
2022-09-12T23:55:20.368Z,99149.88
2022-09-12T23:57:48.797Z,99151.69
